Time;durP1;ratioP1;P1;durP2;ratioP2;P2;SDS_P1;SDS_P2;PMS_P1;PMS_P2;Temp;Humidity;BMP_temperature;BMP_pressure;BME280_temperature;BME280_humidity;BME280_pressure;Samples;Min_cycle;Max_cycle;Signal;HPM_P1;HPM_P2
2023/10/19 00:01:15;;;;;;;;;1.00;0.00;;;;;19.10;100.00;99259.94;5078792;28;46559;-74
2023/10/19 00:03:41;;;;;;;;;1.33;1.33;;;;;19.11;100.00;99259.88;5079073;28;45450;-74
2023/10/19 00:06:06;;;;;;;;;0.00;0.00;;;;;19.07;100.00;99258.31;5080247;27;45467;-74
2023/10/19 00:08:46;;;;;;;;;4.00;1.00;;;;;19.10;100.00;99254.59;5078130;28;61596;-73
2023/10/19 00:11:26;;;;;;;;;4.00;1.00;;;;;19.06;100.00;99256.56;5072104;28;46643;-74
2023/10/19 00:13:54;;;;;;;;;2.00;1.00;;;;;19.12;100.00;99258.06;5077556;27;45332;-74
2023/10/19 00:16:22;;;;;;;;;5.00;1.00;;;;;19.05;100.00;99253.97;5083521;27;45384;-74
2023/10/19 00:18:48;;;;;;;;;2.67;1.00;;;;;19.05;100.00;99260.19;5076012;28;45514;-73
2023/10/19 00:21:20;;;;;;;;;1.00;1.00;;;;;19.03;100.00;99266.56;5078735;28;46511;-75
2023/10/19 00:23:51;;;;;;;;;5.00;1.67;;;;;19.04;100.00;99276.31;5083238;27;45488;-74
2023/10/19 00:26:20;;;;;;;;;2.33;0.00;;;;;19.06;100.00;99269.06;5086378;27;45513;-74
2023/10/19 00:28:52;;;;;;;;;2.00;2.00;;;;;19.06;100.00;99267.25;5078447;28;45235;-73
2023/10/19 00:31:20;;;;;;;;;4.00;1.00;;;;;19.08;100.00;99269.88;5078341;28;46788;-74
2023/10/19 00:33:45;;;;;;;;;4.67;1.00;;;;;19.08;100.00;99272.56;5078340;28;45490;-74
2023/10/19 00:43:42;;;;;;;;;1.33;1.00;;;;;19.12;100.00;99260.72;5078214;28;45258;-74
2023/10/19 00:48:49;;;;;;;;;2.00;0.67;;;;;19.14;100.00;99253.50;5078025;28;45430;-73
2023/10/19 00:51:41;;;;;;;;;0.67;0.67;;;;;19.12;100.00;99250.03;5077139;28;46652;-73
2023/10/19 00:54:26;;;;;;;;;2.33;1.33;;;;;19.08;100.00;99240.44;5077992;28;45408;-74
2023/10/19 00:56:52;;;;;;;;;4.00;1.67;;;;;19.17;100.00;99241.78;5066787;28;45306;-74
2023/10/19 00:59:22;;;;;;;;;3.67;1.00;;;;;19.09;100.00;99228.78;5058589;28;45518;-74
2023/10/19 01:01:50;;;;;;;;;2.67;1.67;;;;;19.12;100.00;99233.97;5072669;27;47616;-74
2023/10/19 01:04:20;;;;;;;;;3.00;1.67;;;;;19.13;100.00;99234.88;5071199;28;45574;-73
2023/10/19 01:07:00;;;;;;;;;4.00;1.00;;;;;19.08;100.00;99232.41;5077642;28;45381;-74
2023/10/19 01:09:27;;;;;;;;;2.00;1.67;;;;;19.09;100.00;99239.50;5073677;28;45416;-74
2023/10/19 01:11:53;;;;;;;;;3.67;1.33;;;;;19.07;100.00;99226.19;5076340;27;46245;-74
2023/10/19 01:14:21;;;;;;;;;3.00;1.33;;;;;19.11;100.00;99227.75;5078132;27;45798;-74
2023/10/19 01:16:48;;;;;;;;;2.00;1.00;;;;;19.07;100.00;99215.50;5076037;28;45463;-74
2023/10/19 01:19:13;;;;;;;;;3.00;2.00;;;;;19.07;100.00;99209.28;5077557;28;45498;-74
2023/10/19 01:21:44;;;;;;;;;1.67;1.67;;;;;19.04;100.00;99201.41;5076762;28;45700;-74
2023/10/19 01:24:12;;;;;;;;;4.00;1.33;;;;;19.06;100.00;99203.03;5057988;28;45410;-74
2023/10/19 01:26:38;;;;;;;;;3.00;1.67;;;;;19.09;100.00;99197.56;5073296;28;45331;-74
2023/10/19 01:29:14;;;;;;;;;4.00;2.00;;;;;19.07;100.00;99199.44;5076734;28;45378;-74
2023/10/19 01:31:52;;;;;;;;;7.33;1.00;;;;;19.06;100.00;99196.84;5076673;28;46650;-74
2023/10/19 01:34:20;;;;;;;;;1.00;1.00;;;;;19.11;100.00;99197.47;5071283;28;45433;-74
2023/10/19 01:36:49;;;;;;;;;1.00;1.00;;;;;19.06;100.00;99186.13;5075041;28;45518;-74
2023/10/19 01:39:15;;;;;;;;;3.67;1.00;;;;;19.07;100.00;99183.41;5069954;28;45585;-74
2023/10/19 01:41:41;;;;;;;;;4.00;1.00;;;;;19.05;100.00;99171.03;5075888;28;46086;-74
2023/10/19 01:44:06;;;;;;;;;5.00;2.00;;;;;19.07;100.00;99177.19;5075899;27;45582;-74
2023/10/19 01:46:34;;;;;;;;;3.00;2.00;;;;;19.10;100.00;99177.00;5076143;28;46631;-74
2023/10/19 01:49:01;;;;;;;;;4.33;2.00;;;;;19.08;100.00;99162.84;5076298;28;45782;-74
2023/10/19 01:51:29;;;;;;;;;7.67;3.00;;;;;19.10;100.00;99172.53;5076342;28;47591;-74
2023/10/19 01:53:55;;;;;;;;;4.67;1.00;;;;;19.13;100.00;99160.81;5076334;28;45544;-73
2023/10/19 01:56:21;;;;;;;;;5.00;2.00;;;;;19.11;100.00;99157.34;5075067;28;46103;-73
2023/10/19 01:58:47;;;;;;;;;9.00;3.00;;;;;19.10;100.00;99145.78;5076463;28;45523;-74
2023/10/19 02:03:43;;;;;;;;;2.00;2.00;;;;;19.14;100.00;99150.97;5075916;28;45351;-74
2023/10/19 02:06:26;;;;;;;;;4.33;3.00;;;;;19.15;100.00;99148.22;5058529;28;45588;-74
2023/10/19 02:11:48;;;;;;;;;3.00;2.00;;;;;19.19;100.00;99125.72;5076325;28;45360;-74
2023/10/19 02:14:18;;;;;;;;;6.33;2.67;;;;;19.23;100.00;99129.09;5079476;27;45529;-74
2023/10/19 02:19:15;;;;;;;;;8.33;2.00;;;;;19.27;100.00;99118.16;5030607;27;46131;-74
2023/10/19 02:21:41;;;;;;;;;8.00;2.00;;;;;19.23;100.00;99127.31;5018253;27;49973;-75
2023/10/19 02:24:07;;;;;;;;;3.00;2.00;;;;;19.21;100.00;99123.81;5012022;28;49494;-74
2023/10/19 02:26:33;;;;;;;;;5.00;2.00;;;;;19.21;100.00;99112.25;5012461;28;45390;-75
2023/10/19 02:28:58;;;;;;;;;5.33;1.00;;;;;19.19;100.00;99115.03;5013021;27;45481;-74
2023/10/19 02:31:27;;;;;;;;;3.67;2.00;;;;;19.25;100.00;99114.69;5030331;27;46455;-74
2023/10/19 02:33:59;;;;;;;;;2.00;2.00;;;;;19.24;100.00;99120.13;5032387;27;45289;-74
2023/10/19 02:36:29;;;;;;;;;1.00;1.00;;;;;19.27;100.00;99115.47;5015478;27;45551;-74
2023/10/19 02:38:58;;;;;;;;;2.67;1.00;;;;;19.24;100.00;99115.66;5019076;27;45528;-74
2023/10/19 02:41:24;;;;;;;;;4.00;2.00;;;;;19.23;100.00;99111.25;5039589;27;46639;-75
2023/10/19 02:44:01;;;;;;;;;3.00;1.00;;;;;19.27;100.00;99119.97;5041826;27;45238;-74
2023/10/19 02:46:28;;;;;;;;;3.33;2.00;;;;;19.30;100.00;99122.50;5022539;27;45477;-73
2023/10/19 02:48:54;;;;;;;;;5.00;2.00;;;;;19.30;100.00;99117.13;5018464;27;45524;-74
2023/10/19 02:51:19;;;;;;;;;2.33;2.00;;;;;19.30;100.00;99119.81;5025966;27;47449;-74
2023/10/19 02:53:44;;;;;;;;;3.67;1.33;;;;;19.35;100.00;99115.09;5025299;27;65449;-73
2023/10/19 02:56:19;;;;;;;;;3.33;1.00;;;;;19.31;100.00;99106.34;5038512;27;45173;-74
2023/10/19 02:58:48;;;;;;;;;3.33;1.67;;;;;19.29;100.00;99105.56;5034638;27;45593;-74
2023/10/19 03:01:24;;;;;;;;;3.00;2.00;;;;;19.30;100.00;99109.09;5041303;27;46394;-74
2023/10/19 03:03:59;;;;;;;;;3.67;3.00;;;;;19.31;100.00;99114.38;5012126;28;45346;-74
2023/10/19 03:06:25;;;;;;;;;4.00;3.00;;;;;19.27;100.00;99115.47;5019883;27;45421;-74
2023/10/19 03:09:04;;;;;;;;;2.67;1.33;;;;;19.28;100.00;99110.97;5027456;27;45429;-74
2023/10/19 03:11:32;;;;;;;;;2.67;2.67;;;;;19.27;100.00;99114.59;5027782;27;46611;-74
2023/10/19 03:13:58;;;;;;;;;2.67;1.00;;;;;19.27;100.00;99104.75;5045595;27;45241;-74
2023/10/19 03:16:23;;;;;;;;;4.00;3.00;;;;;19.27;100.00;99106.56;5010334;28;45429;-73
2023/10/19 03:18:49;;;;;;;;;3.00;2.00;;;;;19.29;100.00;99104.72;5035472;27;45411;-73
2023/10/19 03:21:16;;;;;;;;;3.33;2.00;;;;;19.29;100.00;99094.00;5041562;27;47613;-73
2023/10/19 03:23:41;;;;;;;;;2.00;2.00;;;;;19.29;100.00;99088.66;5010111;27;45469;-73
2023/10/19 03:29:14;;;;;;;;;4.00;1.00;;;;;19.28;100.00;99069.06;5015031;28;45383;-74
2023/10/19 03:31:43;;;;;;;;;3.00;1.00;;;;;19.27;100.00;99067.28;5024859;27;47638;-73
2023/10/19 03:34:10;;;;;;;;;3.00;1.67;;;;;19.28;100.00;99066.38;5017791;27;45269;-74
2023/10/19 03:36:36;;;;;;;;;3.00;3.00;;;;;19.27;100.00;99067.28;5021668;27;45416;-73
2023/10/19 03:39:11;;;;;;;;;4.67;1.00;;;;;19.30;100.00;99071.63;5017044;27;45505;-74
2023/10/19 03:41:38;;;;;;;;;5.67;2.00;;;;;19.29;100.00;99068.09;5040725;27;47595;-74
2023/10/19 03:44:04;;;;;;;;;8.00;2.00;;;;;19.26;100.00;99062.03;5023461;27;45336;-73
2023/10/19 03:46:37;;;;;;;;;4.33;1.00;;;;;19.26;100.00;99062.91;5011359;28;45442;-74
2023/10/19 03:49:10;;;;;;;;;5.00;2.00;;;;;19.29;100.00;99068.09;5025064;27;47206;-74
2023/10/19 03:51:40;;;;;;;;;5.00;2.00;;;;;19.27;100.00;99055.72;5027639;27;46679;-74
2023/10/19 03:54:30;;;;;;;;;9.00;2.00;;;;;19.22;100.00;99057.78;5022319;27;45221;-74
2023/10/19 03:56:56;;;;;;;;;5.67;1.00;;;;;19.17;100.00;99051.81;5014039;27;45229;-73
2023/10/19 03:59:22;;;;;;;;;5.67;2.00;;;;;19.15;100.00;99057.25;5046305;27;45457;-73
2023/10/19 04:01:48;;;;;;;;;4.33;1.67;;;;;19.13;100.00;99045.78;5030425;27;46540;-73
2023/10/19 04:04:16;;;;;;;;;5.33;1.67;;;;;19.18;100.00;99040.19;5019738;27;45423;-73
2023/10/19 04:06:47;;;;;;;;;3.00;2.67;;;;;19.14;100.00;99034.13;5027300;27;45453;-74
2023/10/19 04:09:15;;;;;;;;;5.67;3.00;;;;;19.15;100.00;99038.53;5030176;27;45232;-74
2023/10/19 04:11:49;;;;;;;;;4.00;2.00;;;;;19.16;100.00;99020.66;5014247;28;47598;-73
2023/10/19 04:14:15;;;;;;;;;5.67;2.00;;;;;19.19;100.00;99037.41;5018184;27;45483;-74
2023/10/19 04:16:43;;;;;;;;;2.67;2.00;;;;;19.17;100.00;99023.25;5015019;28;45464;-74
2023/10/19 04:19:10;;;;;;;;;6.00;2.00;;;;;19.16;100.00;99026.88;5041478;27;45317;-74
2023/10/19 04:21:38;;;;;;;;;8.00;2.00;;;;;19.14;100.00;99011.84;5046127;27;46385;-74
2023/10/19 04:24:07;;;;;;;;;2.00;1.00;;;;;19.14;100.00;99007.38;5025337;27;45473;-74
2023/10/19 04:26:37;;;;;;;;;5.67;2.00;;;;;19.12;100.00;99009.25;5025544;27;45406;-74
2023/10/19 04:29:09;;;;;;;;;3.00;1.00;;;;;19.09;100.00;99001.41;5014928;28;45443;-74
2023/10/19 04:31:37;;;;;;;;;5.33;2.67;;;;;19.13;100.00;98992.28;5027976;27;46520;-74
2023/10/19 04:34:07;;;;;;;;;6.67;3.00;;;;;19.11;100.00;98999.50;5017177;27;45449;-74
2023/10/19 04:36:33;;;;;;;;;5.00;1.00;;;;;19.09;100.00;98998.72;5026306;27;45469;-74
2023/10/19 04:38:59;;;;;;;;;1.00;1.00;;;;;19.07;100.00;98993.47;5021841;27;45374;-73
2023/10/19 04:41:27;;;;;;;;;3.67;2.00;;;;;19.07;100.00;98992.59;5037314;27;46873;-74
2023/10/19 04:43:54;;;;;;;;;11.00;2.00;;;;;19.07;100.00;98984.56;5018514;27;45449;-74
2023/10/19 04:46:19;;;;;;;;;8.00;2.00;;;;;19.09;100.00;98977.31;5030256;27;45564;-73
2023/10/19 04:48:45;;;;;;;;;5.00;2.00;;;;;19.10;100.00;98984.38;5037185;27;45425;-73
2023/10/19 04:51:10;;;;;;;;;3.00;2.00;;;;;19.10;100.00;98981.72;5014435;27;74937;-73
2023/10/19 04:53:36;;;;;;;;;3.00;2.00;;;;;19.09;100.00;98977.31;5025399;27;45454;-74
2023/10/19 04:56:03;;;;;;;;;2.33;2.33;;;;;19.10;100.00;98974.56;5052157;27;45428;-73
2023/10/19 04:58:29;;;;;;;;;2.00;2.00;;;;;19.11;100.00;98970.06;5039103;27;45551;-73
2023/10/19 05:00:55;;;;;;;;;6.00;2.33;;;;;19.15;100.00;98957.41;5027288;27;46128;-74
2023/10/19 05:03:20;;;;;;;;;5.33;1.67;;;;;19.18;100.00;98946.53;5021388;27;45573;-74
2023/10/19 05:05:45;;;;;;;;;3.00;3.00;;;;;19.12;100.00;98947.72;5016750;27;45489;-74
2023/10/19 05:08:11;;;;;;;;;3.67;2.00;;;;;19.14;100.00;98959.22;5013803;27;61787;-73
2023/10/19 05:10:37;;;;;;;;;3.00;2.00;;;;;19.12;100.00;98942.34;5022452;27;45581;-74
2023/10/19 05:13:03;;;;;;;;;5.67;2.00;;;;;19.11;100.00;98936.16;5046934;27;45285;-74
2023/10/19 05:15:28;;;;;;;;;3.00;1.67;;;;;19.11;100.00;98933.47;5017620;27;45856;-74
2023/10/19 05:17:54;;;;;;;;;3.33;2.67;;;;;19.11;100.00;98948.66;5031996;27;45468;-73
2023/10/19 05:20:20;;;;;;;;;8.67;1.67;;;;;19.08;100.00;98946.16;5045679;27;70991;-73
2023/10/19 05:22:46;;;;;;;;;4.67;1.33;;;;;19.01;100.00;98942.94;5027725;27;45439;-75
2023/10/19 05:25:11;;;;;;;;;7.00;2.00;;;;;19.11;100.00;98940.63;5013171;27;45912;-74
2023/10/19 05:27:38;;;;;;;;;4.33;1.67;;;;;19.10;100.00;98928.22;5013635;28;45449;-74
2023/10/19 05:30:04;;;;;;;;;2.00;2.00;;;;;19.09;100.00;98919.31;5024084;27;47498;-73
2023/10/19 05:32:30;;;;;;;;;3.33;1.00;;;;;19.11;100.00;98922.78;5025926;27;45423;-73
2023/10/19 05:34:56;;;;;;;;;8.00;2.00;;;;;19.11;100.00;98909.38;5023317;27;45434;-74
2023/10/19 05:37:22;;;;;;;;;4.00;2.00;;;;;19.05;100.00;98900.84;5007721;28;45473;-74
2023/10/19 05:39:51;;;;;;;;;4.00;2.00;;;;;19.08;100.00;98895.34;5023344;27;46480;-74
2023/10/19 05:42:17;;;;;;;;;3.00;2.00;;;;;19.06;100.00;98884.69;5028186;27;45346;-75
2023/10/19 05:44:42;;;;;;;;;2.67;2.00;;;;;19.05;100.00;98891.00;5039156;27;45374;-75
2023/10/19 05:47:07;;;;;;;;;3.00;2.00;;;;;19.05;100.00;98885.66;5033733;27;55538;-73
2023/10/19 05:49:33;;;;;;;;;3.00;2.00;;;;;19.06;100.00;98889.19;5011520;27;47284;-75
2023/10/19 05:51:58;;;;;;;;;2.67;1.00;;;;;19.08;100.00;98884.63;5012812;27;45708;-72
2023/10/19 05:54:24;;;;;;;;;3.00;2.00;;;;;19.10;100.00;98893.44;5014308;27;63523;-73
2023/10/19 05:56:50;;;;;;;;;6.33;2.00;;;;;19.11;100.00;98897.84;5012060;27;45404;-74
2023/10/19 05:59:15;;;;;;;;;2.33;2.00;;;;;19.09;100.00;98913.13;5012592;28;46239;-73
2023/10/19 06:01:41;;;;;;;;;3.00;3.00;;;;;19.09;100.00;98913.13;4999151;28;45456;-75
2023/10/19 06:04:06;;;;;;;;;2.00;2.00;;;;;19.08;100.00;98906.03;4997698;28;45440;-73
2023/10/19 06:06:32;;;;;;;;;4.00;2.33;;;;;19.10;100.00;98914.84;5008151;27;45522;-73
2023/10/19 06:08:57;;;;;;;;;3.67;1.00;;;;;19.11;100.00;98914.75;4993767;28;71409;-75
2023/10/19 06:11:23;;;;;;;;;3.33;1.00;;;;;19.08;100.00;98900.69;5016705;27;64674;-74
2023/10/19 06:13:48;;;;;;;;;1.67;1.67;;;;;19.07;100.00;98888.28;4997530;27;45610;-72
2023/10/19 06:16:16;;;;;;;;;3.00;2.00;;;;;19.03;100.00;98897.41;5003131;27;46096;-73
2023/10/19 06:18:43;;;;;;;;;1.00;1.00;;;;;19.07;100.00;98883.78;4998875;28;46507;-74
2023/10/19 06:21:09;;;;;;;;;3.67;2.00;;;;;19.08;100.00;98884.63;4996193;27;45520;-73
2023/10/19 06:23:36;;;;;;;;;4.33;2.00;;;;;19.06;100.00;98895.41;5004614;28;45493;-73
2023/10/19 06:26:08;;;;;;;;;1.67;1.67;;;;;19.02;100.00;98888.53;5032280;27;45533;-73
2023/10/19 06:28:38;;;;;;;;;5.67;2.00;;;;;19.00;100.00;98889.53;5010757;27;46571;-73
2023/10/19 06:31:04;;;;;;;;;5.00;2.00;;;;;19.03;100.00;98884.03;5001522;27;46061;-73
2023/10/19 06:33:32;;;;;;;;;3.00;3.00;;;;;19.07;100.00;98883.78;5005516;27;45285;-74
2023/10/19 06:35:59;;;;;;;;;4.67;2.00;;;;;19.03;100.00;98886.72;5017294;27;45448;-75
2023/10/19 06:38:25;;;;;;;;;5.67;2.67;;;;;19.03;100.00;98892.06;5028250;27;46576;-73
2023/10/19 06:40:51;;;;;;;;;4.00;1.00;;;;;19.02;100.00;98876.97;5007424;28;45383;-74
2023/10/19 06:43:16;;;;;;;;;5.33;1.67;;;;;19.03;100.00;98886.72;5010811;28;45237;-73
2023/10/19 06:45:44;;;;;;;;;4.33;2.00;;;;;19.04;100.00;98888.44;5019664;27;45223;-73
2023/10/19 06:48:11;;;;;;;;;5.00;3.00;;;;;19.01;100.00;98881.41;5012343;27;46986;-72
2023/10/19 06:50:37;;;;;;;;;5.67;5.00;;;;;19.01;100.00;98888.56;5018602;27;45891;-73
2023/10/19 06:53:05;;;;;;;;;5.00;3.00;;;;;19.00;100.00;98876.16;5013943;28;45366;-74
2023/10/19 06:55:30;;;;;;;;;4.33;2.67;;;;;18.96;100.00;98871.91;5007562;28;45615;-73
2023/10/19 06:57:55;;;;;;;;;3.00;1.00;;;;;19.02;100.00;98882.31;5011266;28;47825;-73
2023/10/19 07:00:22;;;;;;;;;2.00;2.00;;;;;19.04;100.00;98867.88;5002231;28;69655;-74
2023/10/19 07:02:50;;;;;;;;;5.00;2.00;;;;;19.02;100.00;98879.63;5009189;28;45479;-73
2023/10/19 07:05:21;;;;;;;;;4.00;3.00;;;;;19.02;100.00;98868.94;5008500;27;45490;-73
2023/10/19 07:07:47;;;;;;;;;2.00;2.00;;;;;19.03;100.00;98876.88;5016798;27;47625;-73
2023/10/19 07:10:13;;;;;;;;;2.33;2.33;;;;;19.04;100.00;98875.06;5012978;28;45416;-74
2023/10/19 07:12:41;;;;;;;;;3.67;2.67;;;;;19.01;100.00;98860.00;5002560;28;45652;-73
2023/10/19 07:15:08;;;;;;;;;4.67;2.00;;;;;19.11;100.00;98865.72;5003055;28;45575;-73
2023/10/19 07:17:35;;;;;;;;;2.00;2.00;;;;;19.11;100.00;98858.56;4999592;28;47032;-73
2023/10/19 07:20:00;;;;;;;;;3.00;1.00;;;;;19.10;100.00;98854.16;5002730;28;45526;-73
2023/10/19 07:22:25;;;;;;;;;3.33;2.00;;;;;19.13;100.00;98857.63;4999677;27;47354;-74
2023/10/19 07:24:51;;;;;;;;;3.00;2.67;;;;;19.13;100.00;98849.63;5002634;28;61657;-73
2023/10/19 07:27:19;;;;;;;;;4.00;3.33;;;;;19.14;100.00;98841.50;5003920;28;73499;-73
2023/10/19 07:29:45;;;;;;;;;5.67;2.00;;;;;19.15;100.00;98845.88;5016625;27;45564;-74
2023/10/19 07:32:13;;;;;;;;;3.33;3.00;;;;;19.15;100.00;98840.53;5013276;27;45557;-73
2023/10/19 07:34:39;;;;;;;;;1.67;1.67;;;;;19.27;100.00;98825.59;5005686;28;45475;-74
2023/10/19 07:37:07;;;;;;;;;5.00;2.67;;;;;19.40;100.00;98834.69;5005331;28;73626;-73
2023/10/19 07:39:33;;;;;;;;;3.33;2.67;;;;;19.47;100.00;98822.66;5009158;28;45684;-74
2023/10/19 07:41:59;;;;;;;;;3.33;2.00;;;;;19.47;100.00;98821.78;5024180;27;45340;-74
2023/10/19 07:44:24;;;;;;;;;5.00;3.00;;;;;19.55;100.00;98815.06;5011456;28;45623;-74
2023/10/19 07:46:49;;;;;;;;;3.33;1.00;;;;;19.59;100.00;98818.44;5011166;28;46469;-74
2023/10/19 07:49:15;;;;;;;;;5.33;2.33;;;;;19.65;100.00;98809.19;5029024;27;47896;-74
2023/10/19 07:51:47;;;;;;;;;4.67;1.00;;;;;19.68;100.00;98817.91;5010470;27;59423;-74
2023/10/19 07:54:13;;;;;;;;;3.67;2.00;;;;;19.70;100.00;98817.81;5041649;27;45414;-73
2023/10/19 07:56:39;;;;;;;;;2.00;2.00;;;;;19.68;100.00;98817.03;5012135;27;47647;-73
2023/10/19 07:59:04;;;;;;;;;2.00;2.00;;;;;19.70;100.00;98821.34;5013144;28;45398;-73
2023/10/19 08:01:30;;;;;;;;;4.00;2.67;;;;;19.62;100.00;98834.34;5011297;28;45406;-73
2023/10/19 08:03:55;;;;;;;;;5.67;2.67;;;;;19.63;100.00;98838.72;5000895;28;63349;-74
2023/10/19 08:06:21;;;;;;;;;2.00;2.00;;;;;19.64;100.00;98837.78;5018414;27;47115;-73
2023/10/19 08:08:46;;;;;;;;;2.00;2.00;;;;;19.65;100.00;98849.34;5013726;28;45546;-74
2023/10/19 08:11:12;;;;;;;;;4.67;2.33;;;;;19.66;100.00;98841.25;5001362;28;65990;-72
2023/10/19 08:13:39;;;;;;;;;3.00;1.00;;;;;19.63;100.00;98834.22;5002249;27;46825;-74
2023/10/19 08:16:06;;;;;;;;;2.67;1.67;;;;;19.63;100.00;98846.75;5004182;28;46679;-73
2023/10/19 08:18:32;;;;;;;;;3.00;2.00;;;;;19.62;100.00;98832.50;5006504;28;45487;-73
2023/10/19 08:20:58;;;;;;;;;1.67;1.00;;;;;19.65;100.00;98839.50;5008848;27;45454;-74
2023/10/19 08:23:27;;;;;;;;;6.67;2.33;;;;;19.68;100.00;98831.28;5011341;28;45481;-73
2023/10/19 08:25:52;;;;;;;;;1.00;1.00;;;;;19.72;100.00;98822.13;5015800;27;46742;-73
2023/10/19 08:28:18;;;;;;;;;2.00;2.00;;;;;19.74;100.00;98827.41;5007987;28;45386;-73
2023/10/19 08:30:56;;;;;;;;;4.33;2.00;;;;;19.77;100.00;98806.66;5010638;28;45836;-74
2023/10/19 08:33:22;;;;;;;;;2.00;2.00;;;;;19.88;100.00;98812.25;5007832;28;45826;-74
2023/10/19 08:35:47;;;;;;;;;4.00;2.00;;;;;20.03;100.00;98801.56;5008231;28;47630;-74
2023/10/19 08:38:13;;;;;;;;;1.33;1.33;;;;;20.00;100.00;98804.44;5003195;28;69703;-74
2023/10/19 08:40:38;;;;;;;;;0.67;0.33;;;;;20.01;100.00;98793.59;5018602;27;45683;-73
2023/10/19 08:43:04;;;;;;;;;3.00;1.33;;;;;20.10;100.00;98795.75;5010679;28;65358;-75
2023/10/19 08:45:30;;;;;;;;;3.67;1.00;;;;;20.24;100.00;98797.59;5010092;28;47539;-73
2023/10/19 08:47:56;;;;;;;;;1.00;1.00;;;;;20.24;100.00;98802.97;5017533;27;45572;-73
2023/10/19 08:50:24;;;;;;;;;4.33;2.67;;;;;20.26;100.00;98801.03;5016197;27;45525;-73
2023/10/19 08:52:53;;;;;;;;;2.00;1.00;;;;;20.31;100.00;98793.56;5012707;27;45562;-73
2023/10/19 08:55:19;;;;;;;;;5.00;1.67;;;;;20.35;100.00;98800.47;5010446;27;47338;-73
2023/10/19 08:57:46;;;;;;;;;3.33;1.00;;;;;20.38;100.00;98792.22;5011685;28;45497;-73
2023/10/19 09:00:12;;;;;;;;;1.33;1.33;;;;;20.44;100.00;98795.50;5005610;28;45299;-73
2023/10/19 09:02:38;;;;;;;;;1.33;1.33;;;;;20.47;100.00;98787.31;5008972;28;45412;-73
2023/10/19 09:05:07;;;;;;;;;2.33;0.67;;;;;20.43;100.00;98786.59;5010684;28;46746;-72
2023/10/19 09:07:34;;;;;;;;;2.00;2.00;;;;;20.44;100.00;98787.44;5011721;27;47676;-74
2023/10/19 09:10:01;;;;;;;;;1.33;1.33;;;;;20.42;100.00;98782.19;5009874;27;45232;-74
2023/10/19 09:12:26;;;;;;;;;2.67;0.67;;;;;20.42;100.00;98783.03;5005662;27;45400;-73
2023/10/19 09:14:53;;;;;;;;;5.67;0.67;;;;;20.49;100.00;98769.28;5007784;28;46533;-73
2023/10/19 09:17:31;;;;;;;;;1.33;1.33;;;;;20.51;100.00;98768.25;5004323;28;46830;-73
2023/10/19 09:19:59;;;;;;;;;3.00;1.33;;;;;20.55;100.00;98763.53;5036589;27;45343;-73
2023/10/19 09:22:24;;;;;;;;;2.00;2.00;;;;;20.55;100.00;98763.53;5007678;27;45564;-74
2023/10/19 09:24:50;;;;;;;;;3.00;0.33;;;;;20.62;100.00;98773.78;4999820;28;67085;-74
2023/10/19 09:27:20;;;;;;;;;4.33;0.67;;;;;20.67;100.00;98774.38;5000732;28;45379;-74
2023/10/19 09:29:47;;;;;;;;;1.33;1.33;;;;;20.69;100.00;98765.34;5032906;27;45582;-73
2023/10/19 09:32:15;;;;;;;;;1.00;0.33;;;;;20.74;100.00;98753.38;5011389;27;45407;-73
2023/10/19 09:34:43;;;;;;;;;1.67;1.67;;;;;20.66;100.00;98756.53;5003776;28;47605;-73
2023/10/19 09:37:09;;;;;;;;;3.67;1.00;;;;;20.68;100.00;98753.78;5005780;27;45498;-73
2023/10/19 09:39:34;;;;;;;;;3.33;1.00;;;;;20.64;100.00;98742.38;4997042;28;45583;-73
2023/10/19 09:42:06;;;;;;;;;1.00;1.00;;;;;20.60;100.00;98727.44;5012739;27;45392;-74
2023/10/19 09:44:41;;;;;;;;;3.00;1.00;;;;;20.61;100.00;98726.50;5010395;27;46732;-73
2023/10/19 09:47:12;;;;;;;;;2.00;0.67;;;;;20.55;100.00;98715.28;5009019;27;45555;-73
2023/10/19 09:49:38;;;;;;;;;2.00;1.00;;;;;20.55;100.00;98729.53;5009543;27;45297;-72
2023/10/19 09:52:04;;;;;;;;;0.67;0.67;;;;;20.54;100.00;98724.28;5004909;27;45809;-73
2023/10/19 09:54:47;;;;;;;;;0.67;0.67;;;;;20.59;100.00;98732.91;5001466;28;46338;-73
2023/10/19 09:57:16;;;;;;;;;2.00;0.67;;;;;20.64;100.00;98720.06;5021491;27;45471;-73
2023/10/19 09:59:45;;;;;;;;;5.00;2.00;;;;;20.67;100.00;98715.38;5010707;28;45469;-72
2023/10/19 10:02:15;;;;;;;;;3.00;0.67;;;;;20.65;100.00;98722.63;5003362;27;45512;-72
2023/10/19 10:04:41;;;;;;;;;3.33;1.00;;;;;20.64;100.00;98736.16;5009131;28;46657;-72
2023/10/19 10:07:09;;;;;;;;;0.67;0.67;;;;;20.67;100.00;98736.81;5007371;28;45419;-72
2023/10/19 10:09:39;;;;;;;;;1.00;1.00;;;;;20.98;100.00;98731.28;5009562;28;45625;-72
2023/10/19 10:12:17;;;;;;;;;0.67;0.67;;;;;20.99;100.00;98730.34;5004699;28;45525;-72
2023/10/19 10:15:01;;;;;;;;;0.67;0.67;;;;;20.97;100.00;98730.44;5017305;27;47216;-72
2023/10/19 10:17:27;;;;;;;;;1.67;1.67;;;;;21.06;100.00;98724.47;5009330;27;45491;-73
2023/10/19 10:20:18;;;;;;;;;2.00;1.67;;;;;21.11;100.00;98724.16;5007047;28;45523;-73
2023/10/19 10:22:44;;;;;;;;;1.67;1.67;;;;;21.12;100.00;98725.88;5008883;27;45614;-73
2023/10/19 10:25:29;;;;;;;;;3.33;0.33;;;;;21.17;100.00;98713.03;5002668;28;46271;-73
2023/10/19 10:27:55;;;;;;;;;0.67;0.67;;;;;21.21;100.00;98711.00;5006307;28;45337;-71
2023/10/19 10:30:20;;;;;;;;;1.00;1.00;;;;;21.26;100.00;98711.56;5008810;28;45482;-71
2023/10/19 10:32:52;;;;;;;;;2.00;2.00;;;;;21.31;100.00;98699.59;4993509;28;58948;-72
2023/10/19 10:35:36;;;;;;;;;4.00;2.67;;;;;21.29;100.00;98704.16;5005111;27;46505;-72
2023/10/19 10:38:05;;;;;;;;;1.67;1.67;;;;;21.33;100.00;98700.31;5004730;28;45502;-73
2023/10/19 10:40:31;;;;;;;;;2.00;2.00;;;;;21.35;100.00;98694.84;5005465;27;45470;-72
2023/10/19 10:43:06;;;;;;;;;2.00;1.00;;;;;21.39;100.00;98693.69;5005797;28;45478;-72
2023/10/19 10:45:31;;;;;;;;;2.00;1.00;;;;;21.46;100.00;98684.25;5009294;27;45488;-73
2023/10/19 10:47:57;;;;;;;;;1.00;1.00;;;;;21.52;100.00;98680.28;5012875;27;63231;-72
2023/10/19 10:50:23;;;;;;;;;1.67;1.00;;;;;21.56;100.00;98671.91;5003935;28;61440;-72
2023/10/19 10:52:50;;;;;;;;;1.00;1.00;;;;;21.61;100.00;98660.84;5011037;27;45513;-71
2023/10/19 10:55:15;;;;;;;;;1.00;1.00;;;;;21.65;100.00;98668.59;5010151;27;45724;-71
2023/10/19 10:57:42;;;;;;;;;1.67;1.00;;;;;21.67;100.00;98653.22;5020193;27;65545;-71
2023/10/19 11:00:09;;;;;;;;;3.00;1.00;;;;;21.75;100.00;98658.09;5007463;28;46360;-71
2023/10/19 11:02:36;;;;;;;;;2.00;0.00;;;;;21.77;100.00;98653.44;5005917;28;45469;-72
2023/10/19 11:05:01;;;;;;;;;1.00;1.00;;;;;21.78;100.00;98638.19;5006060;27;46713;-73
2023/10/19 11:07:26;;;;;;;;;0.67;0.00;;;;;21.78;100.00;98636.34;5008405;27;45569;-72
2023/10/19 11:09:52;;;;;;;;;2.00;0.33;;;;;21.83;100.00;98641.41;5002624;27;45534;-71
2023/10/19 11:12:19;;;;;;;;;2.00;0.00;;;;;21.87;100.00;98642.94;5004723;27;45599;-73
2023/10/19 11:14:59;;;;;;;;;2.00;0.33;;;;;21.92;100.00;98640.78;5008334;28;46161;-71
2023/10/19 11:17:33;;;;;;;;;0.00;0.00;;;;;22.00;100.00;98634.84;5023225;27;45366;-73
2023/10/19 11:19:59;;;;;;;;;2.00;0.00;;;;;22.08;100.00;98635.19;5000919;27;45494;-72
2023/10/19 11:22:26;;;;;;;;;1.33;1.00;;;;;22.13;100.00;98630.38;5001736;28;45630;-73
2023/10/19 11:24:53;;;;;;;;;1.00;1.00;;;;;22.14;100.00;98622.19;5000920;28;46572;-72
2023/10/19 11:27:28;;;;;;;;;3.67;2.00;;;;;22.20;100.00;98626.25;5008613;27;45520;-73
2023/10/19 11:29:58;;;;;;;;;3.00;1.00;;;;;22.27;100.00;98624.00;5008731;28;45858;-73
2023/10/19 11:32:25;;;;;;;;;1.00;1.00;;;;;22.34;100.00;98617.22;5006425;28;45692;-73
2023/10/19 11:34:56;;;;;;;;;0.67;0.67;;;;;22.41;100.00;98621.16;5004717;28;46794;-72
2023/10/19 11:37:22;;;;;;;;;0.00;0.00;;;;;22.41;100.00;98615.78;5009996;27;45529;-73
2023/10/19 11:39:49;;;;;;;;;2.00;0.00;;;;;22.43;100.00;98605.78;5010429;28;45735;-72
2023/10/19 11:42:15;;;;;;;;;0.00;0.00;;;;;22.48;100.00;98606.31;5009725;28;45356;-73
2023/10/19 11:44:40;;;;;;;;;1.00;1.00;;;;;22.55;100.00;98595.94;4996082;28;45689;-71
2023/10/19 11:47:05;;;;;;;;;1.00;1.00;;;;;22.56;100.00;98582.38;5007715;28;60027;-72
2023/10/19 11:49:31;;;;;;;;;2.00;1.00;;;;;22.56;100.00;98574.31;5006489;28;62438;-72